sensor_id;sensor_type;location;lat;lon;timestamp;P1;durP1;ratioP1;P2;durP2;ratioP2
54665;SDS011;40566;50.006;36.180;2022-10-15T00:00:09;8.82;;;2.58;;
54665;SDS011;40566;50.006;36.180;2022-10-15T00:05:10;5.78;;;2.65;;
54665;SDS011;40566;50.006;36.180;2022-10-15T00:10:11;6.00;;;2.78;;
54665;SDS011;40566;50.006;36.180;2022-10-15T00:15:12;7.20;;;2.63;;
54665;SDS011;40566;50.006;36.180;2022-10-15T00:20:13;7.75;;;2.90;;
54665;SDS011;40566;50.006;36.180;2022-10-15T00:25:14;6.57;;;2.83;;
54665;SDS011;40566;50.006;36.180;2022-10-15T00:30:15;7.38;;;3.00;;
54665;SDS011;40566;50.006;36.180;2022-10-15T00:35:15;6.80;;;2.95;;
54665;SDS011;40566;50.006;36.180;2022-10-15T00:40:16;6.80;;;3.20;;
54665;SDS011;40566;50.006;36.180;2022-10-15T00:45:19;6.78;;;2.85;;
54665;SDS011;40566;50.006;36.180;2022-10-15T00:50:22;8.85;;;3.40;;
54665;SDS011;40566;50.006;36.180;2022-10-15T00:55:32;7.40;;;2.22;;
54665;SDS011;40566;50.006;36.180;2022-10-15T01:00:35;7.03;;;2.83;;
54665;SDS011;40566;50.006;36.180;2022-10-15T01:05:36;5.82;;;2.97;;
54665;SDS011;40566;50.006;36.180;2022-10-15T01:10:47;8.95;;;2.58;;
54665;SDS011;40566;50.006;36.180;2022-10-15T01:15:58;4.68;;;1.60;;
54665;SDS011;40566;50.006;36.180;2022-10-15T01:36:47;5.28;;;2.10;;
54665;SDS011;40566;50.006;36.180;2022-10-15T01:41:56;7.60;;;2.67;;
54665;SDS011;40566;50.006;36.180;2022-10-15T01:52:05;7.00;;;3.05;;
54665;SDS011;40566;50.006;36.180;2022-10-15T01:57:09;5.82;;;2.25;;
54665;SDS011;40566;50.006;36.180;2022-10-15T02:02:11;7.13;;;2.47;;
54665;SDS011;40566;50.006;36.180;2022-10-15T02:23:52;11.57;;;4.15;;
54665;SDS011;40566;50.006;36.180;2022-10-15T02:29:11;10.88;;;4.18;;
54665;SDS011;40566;50.006;36.180;2022-10-15T02:34:16;9.43;;;3.63;;
54665;SDS011;40566;50.006;36.180;2022-10-15T02:39:20;8.25;;;3.10;;
54665;SDS011;40566;50.006;36.180;2022-10-15T02:44:26;8.77;;;3.40;;
54665;SDS011;40566;50.006;36.180;2022-10-15T02:49:26;6.80;;;2.85;;
54665;SDS011;40566;50.006;36.180;2022-10-15T02:54:27;4.97;;;2.13;;
54665;SDS011;40566;50.006;36.180;2022-10-15T02:59:27;6.93;;;2.92;;
54665;SDS011;40566;50.006;36.180;2022-10-15T03:04:28;5.43;;;2.67;;
54665;SDS011;40566;50.006;36.180;2022-10-15T03:09:29;4.75;;;1.48;;
54665;SDS011;40566;50.006;36.180;2022-10-15T03:14:29;4.22;;;1.48;;
54665;SDS011;40566;50.006;36.180;2022-10-15T03:19:30;4.38;;;1.75;;
54665;SDS011;40566;50.006;36.180;2022-10-15T03:24:30;7.88;;;2.85;;
54665;SDS011;40566;50.006;36.180;2022-10-15T03:29:31;13.63;;;4.07;;
54665;SDS011;40566;50.006;36.180;2022-10-15T03:34:31;7.18;;;2.63;;
54665;SDS011;40566;50.006;36.180;2022-10-15T03:39:32;7.95;;;2.67;;
54665;SDS011;40566;50.006;36.180;2022-10-15T03:44:33;4.68;;;1.90;;
54665;SDS011;40566;50.006;36.180;2022-10-15T03:49:34;5.93;;;2.40;;
54665;SDS011;40566;50.006;36.180;2022-10-15T03:54:34;7.22;;;2.50;;
54665;SDS011;40566;50.006;36.180;2022-10-15T03:59:35;4.53;;;1.90;;
54665;SDS011;40566;50.006;36.180;2022-10-15T04:04:35;10.63;;;2.50;;
54665;SDS011;40566;50.006;36.180;2022-10-15T04:09:36;12.10;;;4.30;;
54665;SDS011;40566;50.006;36.180;2022-10-15T04:14:37;13.10;;;3.90;;
54665;SDS011;40566;50.006;36.180;2022-10-15T04:19:37;7.55;;;3.17;;
54665;SDS011;40566;50.006;36.180;2022-10-15T04:24:38;5.82;;;2.17;;
54665;SDS011;40566;50.006;36.180;2022-10-15T04:29:38;6.15;;;2.38;;
54665;SDS011;40566;50.006;36.180;2022-10-15T04:34:39;9.75;;;4.20;;
54665;SDS011;40566;50.006;36.180;2022-10-15T04:39:40;9.02;;;3.80;;
54665;SDS011;40566;50.006;36.180;2022-10-15T04:44:40;30.40;;;10.73;;
54665;SDS011;40566;50.006;36.180;2022-10-15T04:49:41;158.68;;;57.22;;
54665;SDS011;40566;50.006;36.180;2022-10-15T04:54:42;80.63;;;37.08;;
54665;SDS011;40566;50.006;36.180;2022-10-15T04:59:42;208.10;;;83.15;;
54665;SDS011;40566;50.006;36.180;2022-10-15T05:04:43;27.77;;;12.07;;
54665;SDS011;40566;50.006;36.180;2022-10-15T05:09:44;28.83;;;10.18;;
54665;SDS011;40566;50.006;36.180;2022-10-15T05:14:44;9.43;;;2.80;;
54665;SDS011;40566;50.006;36.180;2022-10-15T05:19:45;17.33;;;4.85;;
54665;SDS011;40566;50.006;36.180;2022-10-15T05:24:45;27.35;;;12.98;;
54665;SDS011;40566;50.006;36.180;2022-10-15T05:29:46;54.33;;;26.48;;
54665;SDS011;40566;50.006;36.180;2022-10-15T05:34:47;13.73;;;6.43;;
54665;SDS011;40566;50.006;36.180;2022-10-15T05:39:48;14.70;;;7.65;;
54665;SDS011;40566;50.006;36.180;2022-10-15T05:44:48;8.60;;;2.80;;
54665;SDS011;40566;50.006;36.180;2022-10-15T05:49:49;12.45;;;4.43;;
54665;SDS011;40566;50.006;36.180;2022-10-15T05:54:50;14.10;;;6.68;;
54665;SDS011;40566;50.006;36.180;2022-10-15T05:59:50;8.25;;;3.63;;
54665;SDS011;40566;50.006;36.180;2022-10-15T06:04:51;6.43;;;2.95;;
54665;SDS011;40566;50.006;36.180;2022-10-15T06:09:52;15.18;;;2.92;;
54665;SDS011;40566;50.006;36.180;2022-10-15T06:14:53;7.28;;;2.63;;
54665;SDS011;40566;50.006;36.180;2022-10-15T06:19:53;7.20;;;2.67;;
54665;SDS011;40566;50.006;36.180;2022-10-15T06:24:54;7.93;;;2.97;;
54665;SDS011;40566;50.006;36.180;2022-10-15T06:29:55;8.27;;;3.33;;
54665;SDS011;40566;50.006;36.180;2022-10-15T06:34:56;10.50;;;4.32;;
54665;SDS011;40566;50.006;36.180;2022-10-15T06:39:56;7.97;;;2.97;;
54665;SDS011;40566;50.006;36.180;2022-10-15T06:44:57;10.23;;;2.95;;
54665;SDS011;40566;50.006;36.180;2022-10-15T06:49:58;13.75;;;5.63;;
54665;SDS011;40566;50.006;36.180;2022-10-15T06:54:59;20.83;;;9.13;;
54665;SDS011;40566;50.006;36.180;2022-10-15T07:00:00;11.20;;;3.90;;
54665;SDS011;40566;50.006;36.180;2022-10-15T07:05:01;12.20;;;4.25;;
54665;SDS011;40566;50.006;36.180;2022-10-15T07:10:01;11.60;;;4.63;;
54665;SDS011;40566;50.006;36.180;2022-10-15T07:15:02;24.55;;;6.32;;
54665;SDS011;40566;50.006;36.180;2022-10-15T07:20:03;12.82;;;5.45;;
54665;SDS011;40566;50.006;36.180;2022-10-15T07:25:05;16.00;;;5.25;;
54665;SDS011;40566;50.006;36.180;2022-10-15T07:30:06;13.82;;;5.53;;
54665;SDS011;40566;50.006;36.180;2022-10-15T07:35:07;14.25;;;5.47;;
54665;SDS011;40566;50.006;36.180;2022-10-15T07:40:08;14.20;;;5.53;;
54665;SDS011;40566;50.006;36.180;2022-10-15T07:45:09;9.23;;;3.20;;
54665;SDS011;40566;50.006;36.180;2022-10-15T07:50:10;10.57;;;4.63;;
54665;SDS011;40566;50.006;36.180;2022-10-15T07:55:10;11.40;;;4.82;;
54665;SDS011;40566;50.006;36.180;2022-10-15T08:00:12;11.35;;;3.92;;
54665;SDS011;40566;50.006;36.180;2022-10-15T08:05:13;10.57;;;3.42;;
54665;SDS011;40566;50.006;36.180;2022-10-15T08:10:14;15.10;;;3.78;;
54665;SDS011;40566;50.006;36.180;2022-10-15T08:15:15;9.85;;;4.03;;
54665;SDS011;40566;50.006;36.180;2022-10-15T08:20:15;12.52;;;5.30;;
54665;SDS011;40566;50.006;36.180;2022-10-15T08:25:16;10.38;;;4.50;;
54665;SDS011;40566;50.006;36.180;2022-10-15T08:30:17;8.27;;;3.53;;
54665;SDS011;40566;50.006;36.180;2022-10-15T08:35:17;9.00;;;3.65;;
54665;SDS011;40566;50.006;36.180;2022-10-15T08:40:18;6.80;;;2.92;;
54665;SDS011;40566;50.006;36.180;2022-10-15T08:45:28;19.25;;;7.85;;
54665;SDS011;40566;50.006;36.180;2022-10-15T08:55:48;8.02;;;3.13;;
54665;SDS011;40566;50.006;36.180;2022-10-15T09:00:51;7.90;;;3.47;;
54665;SDS011;40566;50.006;36.180;2022-10-15T09:05:58;7.65;;;2.55;;
54665;SDS011;40566;50.006;36.180;2022-10-15T09:11:04;11.93;;;3.03;;
54665;SDS011;40566;50.006;36.180;2022-10-15T09:16:16;8.60;;;3.45;;
54665;SDS011;40566;50.006;36.180;2022-10-15T09:21:19;9.97;;;4.97;;
54665;SDS011;40566;50.006;36.180;2022-10-15T09:31:38;8.00;;;2.88;;
54665;SDS011;40566;50.006;36.180;2022-10-15T09:37:02;7.63;;;2.92;;
54665;SDS011;40566;50.006;36.180;2022-10-15T09:47:27;9.65;;;3.90;;
54665;SDS011;40566;50.006;36.180;2022-10-15T09:57:54;5.03;;;2.38;;
54665;SDS011;40566;50.006;36.180;2022-10-15T10:03:05;8.85;;;3.90;;
54665;SDS011;40566;50.006;36.180;2022-10-15T10:08:24;8.98;;;3.13;;
54665;SDS011;40566;50.006;36.180;2022-10-15T10:13:27;7.10;;;2.80;;
54665;SDS011;40566;50.006;36.180;2022-10-15T10:18:29;7.88;;;3.75;;
54665;SDS011;40566;50.006;36.180;2022-10-15T10:23:34;7.45;;;3.00;;
54665;SDS011;40566;50.006;36.180;2022-10-15T10:28:54;6.97;;;2.45;;
54665;SDS011;40566;50.006;36.180;2022-10-15T10:33:56;8.65;;;3.10;;
54665;SDS011;40566;50.006;36.180;2022-10-15T10:44:19;24.67;;;14.55;;
54665;SDS011;40566;50.006;36.180;2022-10-15T10:49:29;8.80;;;3.28;;
54665;SDS011;40566;50.006;36.180;2022-10-15T10:54:31;8.27;;;2.53;;
54665;SDS011;40566;50.006;36.180;2022-10-15T10:59:34;6.93;;;2.40;;
54665;SDS011;40566;50.006;36.180;2022-10-15T11:04:42;6.22;;;2.50;;
54665;SDS011;40566;50.006;36.180;2022-10-15T11:57:09;6.68;;;2.70;;
54665;SDS011;40566;50.006;36.180;2022-10-15T12:02:16;7.43;;;2.50;;
54665;SDS011;40566;50.006;36.180;2022-10-15T12:07:22;9.48;;;3.33;;
54665;SDS011;40566;50.006;36.180;2022-10-15T12:17:49;6.40;;;2.50;;
54665;SDS011;40566;50.006;36.180;2022-10-15T12:22:56;6.68;;;2.80;;
54665;SDS011;40566;50.006;36.180;2022-10-15T12:27:59;11.13;;;3.60;;
54665;SDS011;40566;50.006;36.180;2022-10-15T12:38:39;7.03;;;3.20;;
54665;SDS011;40566;50.006;36.180;2022-10-15T12:43:52;9.27;;;3.63;;
54665;SDS011;40566;50.006;36.180;2022-10-15T12:54:31;9.60;;;2.90;;
54665;SDS011;40566;50.006;36.180;2022-10-15T13:04:43;6.57;;;2.92;;
54665;SDS011;40566;50.006;36.180;2022-10-15T13:09:43;9.85;;;4.20;;
54665;SDS011;40566;50.006;36.180;2022-10-15T13:14:47;16.40;;;5.90;;
54665;SDS011;40566;50.006;36.180;2022-10-15T13:20:05;9.90;;;3.85;;
54665;SDS011;40566;50.006;36.180;2022-10-15T13:25:14;8.80;;;3.90;;
54665;SDS011;40566;50.006;36.180;2022-10-15T13:30:16;11.30;;;4.65;;
54665;SDS011;40566;50.006;36.180;2022-10-15T13:35:18;11.23;;;4.57;;
54665;SDS011;40566;50.006;36.180;2022-10-15T13:40:22;14.75;;;2.65;;
54665;SDS011;40566;50.006;36.180;2022-10-15T13:45:27;8.55;;;3.35;;
54665;SDS011;40566;50.006;36.180;2022-10-15T13:50:29;9.57;;;3.90;;
54665;SDS011;40566;50.006;36.180;2022-10-15T13:55:36;9.38;;;3.80;;
54665;SDS011;40566;50.006;36.180;2022-10-15T14:00:39;16.67;;;8.48;;
54665;SDS011;40566;50.006;36.180;2022-10-15T14:05:40;11.65;;;5.00;;
54665;SDS011;40566;50.006;36.180;2022-10-15T14:10:45;8.63;;;3.80;;
54665;SDS011;40566;50.006;36.180;2022-10-15T14:20:48;8.15;;;3.85;;
54665;SDS011;40566;50.006;36.180;2022-10-15T14:25:53;15.30;;;5.07;;
54665;SDS011;40566;50.006;36.180;2022-10-15T14:30:55;14.95;;;6.20;;
54665;SDS011;40566;50.006;36.180;2022-10-15T14:41:31;20.48;;;6.88;;
54665;SDS011;40566;50.006;36.180;2022-10-15T14:46:35;15.43;;;6.00;;
54665;SDS011;40566;50.006;36.180;2022-10-15T14:51:40;16.05;;;6.13;;
54665;SDS011;40566;50.006;36.180;2022-10-15T14:56:41;14.60;;;6.03;;
54665;SDS011;40566;50.006;36.180;2022-10-15T15:01:50;20.02;;;6.82;;
54665;SDS011;40566;50.006;36.180;2022-10-15T15:06:55;19.15;;;8.18;;
54665;SDS011;40566;50.006;36.180;2022-10-15T15:11:55;20.05;;;9.25;;
54665;SDS011;40566;50.006;36.180;2022-10-15T15:16:56;26.20;;;10.40;;
54665;SDS011;40566;50.006;36.180;2022-10-15T15:21:57;17.27;;;8.98;;
54665;SDS011;40566;50.006;36.180;2022-10-15T15:26:57;17.27;;;9.68;;
54665;SDS011;40566;50.006;36.180;2022-10-15T15:31:58;19.48;;;9.45;;
54665;SDS011;40566;50.006;36.180;2022-10-15T15:36:59;22.00;;;10.23;;
54665;SDS011;40566;50.006;36.180;2022-10-15T15:42:00;65.53;;;31.48;;
54665;SDS011;40566;50.006;36.180;2022-10-15T15:47:00;67.43;;;31.90;;
54665;SDS011;40566;50.006;36.180;2022-10-15T15:52:01;38.78;;;16.42;;
54665;SDS011;40566;50.006;36.180;2022-10-15T15:57:02;37.10;;;16.85;;
54665;SDS011;40566;50.006;36.180;2022-10-15T16:02:02;38.05;;;17.80;;
54665;SDS011;40566;50.006;36.180;2022-10-15T16:07:03;23.38;;;10.13;;
54665;SDS011;40566;50.006;36.180;2022-10-15T16:12:04;24.08;;;9.95;;
54665;SDS011;40566;50.006;36.180;2022-10-15T16:17:04;18.90;;;8.63;;
54665;SDS011;40566;50.006;36.180;2022-10-15T16:22:05;21.85;;;8.52;;
54665;SDS011;40566;50.006;36.180;2022-10-15T16:27:06;20.95;;;8.73;;
54665;SDS011;40566;50.006;36.180;2022-10-15T16:32:06;19.13;;;8.10;;
54665;SDS011;40566;50.006;36.180;2022-10-15T16:37:07;25.75;;;9.82;;
54665;SDS011;40566;50.006;36.180;2022-10-15T16:42:07;29.67;;;15.25;;
54665;SDS011;40566;50.006;36.180;2022-10-15T16:47:08;40.47;;;21.35;;
54665;SDS011;40566;50.006;36.180;2022-10-15T16:52:09;50.83;;;27.15;;
54665;SDS011;40566;50.006;36.180;2022-10-15T16:57:10;45.53;;;18.80;;
54665;SDS011;40566;50.006;36.180;2022-10-15T17:02:11;50.67;;;18.02;;
54665;SDS011;40566;50.006;36.180;2022-10-15T17:07:11;55.88;;;21.38;;
54665;SDS011;40566;50.006;36.180;2022-10-15T17:12:12;72.85;;;24.17;;
54665;SDS011;40566;50.006;36.180;2022-10-15T17:17:13;60.38;;;22.98;;
54665;SDS011;40566;50.006;36.180;2022-10-15T17:22:13;57.58;;;20.52;;
54665;SDS011;40566;50.006;36.180;2022-10-15T17:27:14;39.90;;;16.73;;
54665;SDS011;40566;50.006;36.180;2022-10-15T17:32:14;50.33;;;26.92;;
54665;SDS011;40566;50.006;36.180;2022-10-15T17:37:15;45.42;;;18.88;;
54665;SDS011;40566;50.006;36.180;2022-10-15T17:42:15;37.72;;;14.52;;
54665;SDS011;40566;50.006;36.180;2022-10-15T17:47:17;41.03;;;17.48;;
54665;SDS011;40566;50.006;36.180;2022-10-15T17:52:18;51.05;;;19.88;;
54665;SDS011;40566;50.006;36.180;2022-10-15T17:57:19;40.42;;;16.42;;
54665;SDS011;40566;50.006;36.180;2022-10-15T18:02:20;29.55;;;13.10;;
54665;SDS011;40566;50.006;36.180;2022-10-15T18:07:20;30.15;;;12.63;;
54665;SDS011;40566;50.006;36.180;2022-10-15T18:12:21;30.88;;;12.45;;
54665;SDS011;40566;50.006;36.180;2022-10-15T18:17:21;30.70;;;11.52;;
54665;SDS011;40566;50.006;36.180;2022-10-15T18:22:22;38.40;;;14.70;;
54665;SDS011;40566;50.006;36.180;2022-10-15T18:27:22;48.33;;;19.88;;
54665;SDS011;40566;50.006;36.180;2022-10-15T18:32:24;74.65;;;28.77;;
54665;SDS011;40566;50.006;36.180;2022-10-15T18:37:25;52.88;;;23.02;;
54665;SDS011;40566;50.006;36.180;2022-10-15T18:42:25;56.38;;;22.90;;
54665;SDS011;40566;50.006;36.180;2022-10-15T18:47:26;41.03;;;17.98;;
54665;SDS011;40566;50.006;36.180;2022-10-15T18:52:26;43.67;;;16.00;;
54665;SDS011;40566;50.006;36.180;2022-10-15T18:57:27;35.75;;;14.45;;
54665;SDS011;40566;50.006;36.180;2022-10-15T19:02:28;23.75;;;10.57;;
54665;SDS011;40566;50.006;36.180;2022-10-15T19:07:29;27.02;;;10.38;;
54665;SDS011;40566;50.006;36.180;2022-10-15T19:12:29;26.33;;;11.13;;
54665;SDS011;40566;50.006;36.180;2022-10-15T19:17:30;25.65;;;10.90;;
54665;SDS011;40566;50.006;36.180;2022-10-15T19:22:30;27.92;;;10.95;;
54665;SDS011;40566;50.006;36.180;2022-10-15T19:27:32;37.47;;;13.35;;
54665;SDS011;40566;50.006;36.180;2022-10-15T19:32:33;29.38;;;12.52;;
54665;SDS011;40566;50.006;36.180;2022-10-15T19:37:34;23.83;;;10.25;;
54665;SDS011;40566;50.006;36.180;2022-10-15T19:42:34;23.30;;;9.63;;
54665;SDS011;40566;50.006;36.180;2022-10-15T19:47:35;18.80;;;7.85;;
54665;SDS011;40566;50.006;36.180;2022-10-15T19:52:35;20.50;;;8.48;;
54665;SDS011;40566;50.006;36.180;2022-10-15T19:57:36;18.98;;;7.82;;
54665;SDS011;40566;50.006;36.180;2022-10-15T20:02:36;21.38;;;7.38;;
54665;SDS011;40566;50.006;36.180;2022-10-15T20:08:05;24.52;;;9.30;;
54665;SDS011;40566;50.006;36.180;2022-10-15T20:13:07;28.15;;;9.52;;
54665;SDS011;40566;50.006;36.180;2022-10-15T20:18:08;19.65;;;7.93;;
54665;SDS011;40566;50.006;36.180;2022-10-15T20:23:09;21.95;;;8.30;;
54665;SDS011;40566;50.006;36.180;2022-10-15T20:28:11;19.30;;;7.43;;
54665;SDS011;40566;50.006;36.180;2022-10-15T20:33:14;18.73;;;7.13;;
54665;SDS011;40566;50.006;36.180;2022-10-15T20:38:15;22.33;;;8.60;;
54665;SDS011;40566;50.006;36.180;2022-10-15T20:43:16;22.42;;;9.70;;
54665;SDS011;40566;50.006;36.180;2022-10-15T20:48:20;20.70;;;8.57;;
54665;SDS011;40566;50.006;36.180;2022-10-15T20:53:23;32.85;;;13.98;;
54665;SDS011;40566;50.006;36.180;2022-10-15T20:58:24;35.38;;;15.00;;
54665;SDS011;40566;50.006;36.180;2022-10-15T21:03:25;35.38;;;14.43;;
54665;SDS011;40566;50.006;36.180;2022-10-15T21:08:26;15.95;;;6.55;;
54665;SDS011;40566;50.006;36.180;2022-10-15T21:13:27;19.55;;;7.22;;
54665;SDS011;40566;50.006;36.180;2022-10-15T21:18:28;19.13;;;6.93;;
54665;SDS011;40566;50.006;36.180;2022-10-15T21:23:29;17.50;;;6.63;;
54665;SDS011;40566;50.006;36.180;2022-10-15T21:28:31;26.30;;;8.30;;
54665;SDS011;40566;50.006;36.180;2022-10-15T21:33:32;17.88;;;6.88;;
54665;SDS011;40566;50.006;36.180;2022-10-15T21:38:35;18.25;;;7.30;;
54665;SDS011;40566;50.006;36.180;2022-10-15T21:43:35;15.95;;;7.20;;
54665;SDS011;40566;50.006;36.180;2022-10-15T21:48:36;19.05;;;7.70;;
54665;SDS011;40566;50.006;36.180;2022-10-15T21:53:37;15.18;;;6.40;;
54665;SDS011;40566;50.006;36.180;2022-10-15T21:58:38;20.05;;;8.00;;
54665;SDS011;40566;50.006;36.180;2022-10-15T22:03:40;21.25;;;8.75;;
54665;SDS011;40566;50.006;36.180;2022-10-15T22:08:41;18.38;;;7.25;;
54665;SDS011;40566;50.006;36.180;2022-10-15T22:13:43;18.15;;;6.93;;
54665;SDS011;40566;50.006;36.180;2022-10-15T22:18:45;16.13;;;6.43;;
54665;SDS011;40566;50.006;36.180;2022-10-15T22:23:49;16.52;;;5.93;;
54665;SDS011;40566;50.006;36.180;2022-10-15T22:28:52;16.65;;;5.88;;
54665;SDS011;40566;50.006;36.180;2022-10-15T22:33:54;11.90;;;5.82;;
54665;SDS011;40566;50.006;36.180;2022-10-15T22:38:58;13.98;;;5.85;;
54665;SDS011;40566;50.006;36.180;2022-10-15T22:44:04;16.85;;;5.93;;
54665;SDS011;40566;50.006;36.180;2022-10-15T22:49:14;13.63;;;5.28;;
54665;SDS011;40566;50.006;36.180;2022-10-15T22:54:20;12.55;;;5.70;;
54665;SDS011;40566;50.006;36.180;2022-10-15T22:59:21;14.75;;;5.65;;
54665;SDS011;40566;50.006;36.180;2022-10-15T23:04:22;13.93;;;5.47;;
54665;SDS011;40566;50.006;36.180;2022-10-15T23:09:22;13.75;;;5.38;;
54665;SDS011;40566;50.006;36.180;2022-10-15T23:14:23;12.40;;;4.45;;
54665;SDS011;40566;50.006;36.180;2022-10-15T23:19:23;11.82;;;4.53;;
54665;SDS011;40566;50.006;36.180;2022-10-15T23:24:25;15.73;;;4.53;;
54665;SDS011;40566;50.006;36.180;2022-10-15T23:29:26;11.10;;;4.85;;
54665;SDS011;40566;50.006;36.180;2022-10-15T23:34:26;14.95;;;5.20;;
54665;SDS011;40566;50.006;36.180;2022-10-15T23:39:27;9.27;;;3.55;;
54665;SDS011;40566;50.006;36.180;2022-10-15T23:44:28;8.98;;;3.90;;
54665;SDS011;40566;50.006;36.180;2022-10-15T23:49:28;15.50;;;4.18;;
54665;SDS011;40566;50.006;36.180;2022-10-15T23:54:29;12.70;;;4.72;;
54665;SDS011;40566;50.006;36.180;2022-10-15T23:59:30;10.80;;;4.40;;
